Flight Track Log - Related Links

Times and Time Zones

All times are in EDT time to prevent confusion due to time zone crossing. See the JBU33 flight status page for this flight to view local times or setup timezone preferences in your user account.

Time Position Orientation Groundspeed Altitude Reporting Facility
EDT Latitude Longitude Course Direction KTS MPH feet Rate Location/Type
Tue 02:28:27 PM 44.3444 -73.1686 196° South 254 292 6,700  Level Boston Center
Tue 02:29:00 PM 44.1680 -73.2620 195° South  Level FlightAware Approximate
Tue 02:29:27 PM 44.2756 -73.1997 198° South 259 298 9,600  Level Boston Center
Tue 02:30:00 PM 44.0929 -73.2902 195° South  Level FlightAware Approximate
Tue 02:31:00 PM 44.0174 -73.3165 194° South  Level FlightAware Approximate
Tue 02:31:27 PM 44.1064 -73.2669 196° South 318 366 14,500  Level Boston Center
Tue 02:32:00 PM 43.9417 -73.3417 193° South  Level FlightAware Approximate
Tue 02:32:27 PM 44.0142 -73.3033 196° South 344 396 17,000  Level Boston Center
Tue 02:33:00 PM 43.8667 -73.3701 196° South  Level FlightAware Approximate
Tue 02:33:27 PM 43.9203 -73.3422 197° South 354 407 19,200  Level Boston Center
Tue 02:34:27 PM 43.8094 -73.3867 196° South 365 420 21,700 2,250 Climbing Boston Center
Tue 02:35:27 PM 43.7069 -73.4281 196° South 375 432 23,700 1,950 Climbing Boston Center
Tue 02:36:27 PM 43.6025 -73.4694 196° South 386 444 25,600 1,150 Climbing Boston Center
Tue 02:37:27 PM 43.5000 -73.5078 195° South 386 444 26,000 200 Climbing Boston Center
Tue 02:38:27 PM 43.3975 -73.5486 196° South 386 444 26,000  Level Boston Center
Tue 02:39:27 PM 43.2950 -73.5897 196° South 386 444 26,000  Level Boston Center
Tue 02:40:27 PM 43.1925 -73.6306 196° South 386 444 26,000  Level Boston Center
Tue 02:41:27 PM 43.0983 -73.6683 196° South 387 445 26,000  Level Boston Center
Tue 02:42:27 PM 42.9997 -73.7092 197° South 387 445 26,000  Level Boston Center
Tue 02:43:27 PM 42.8953 -73.7467 195° South 387 445 26,000  Level Boston Center
Tue 02:44:27 PM 42.7947 -73.7869 196° South 387 445 26,000  Level Boston Center
Tue 02:45:27 PM 42.6903 -73.8100 189° South 382 440 26,000  Level Boston Center
Tue 02:46:27 PM 42.5733 -73.8131 181° South 382 440 26,000  Level Boston Center
Tue 02:47:27 PM 42.4881 -73.8139 180° South 382 440 26,000  Level Boston Center
Tue 02:48:27 PM 42.3608 -73.8169 181° South 382 440 26,000  Level Boston Center
Tue 02:49:27 PM 42.2525 -73.8172 180° South 382 440 26,000  Level Boston Center
Tue 02:50:27 PM 42.1481 -73.8206 181° South 382 440 26,000  Level Boston Center
Tue 02:51:27 PM 42.0478 -73.8464 191° South 382 440 26,000 -150 Level Boston Center
Tue 02:52:27 PM 41.9472 -73.8833 195° South 377 434 25,700 -1,000 Descending Boston Center
Tue 02:53:27 PM 41.8469 -73.9144 193° South 377 434 24,000 -1,650 Descending Boston Center
Tue 02:54:27 PM 41.7547 -73.9456 194° South 377 434 22,400 -1,326 Descending Boston Center
Tue 02:56:28 PM 41.5694 -74.0014 193° South 380 437 20,000 -791 Descending New York Center
Tue 02:57:29 PM 41.4831 -74.0331 195° South 345 397 20,000  Level New York Center
Tue 02:58:27 PM 41.3947 -74.0622 194° South 340 391 20,000  Level New York Center
Tue 02:59:28 PM 41.3161 -74.1244 211° Southwest 334 384 20,000  Level New York Center
Tue 03:00:28 PM 41.2633 -74.2156 232° Southwest 322 371 20,000  Level New York Center
Tue 03:01:29 PM 41.2411 -74.3331 256° West 303 349 20,000  Level New York Center
Tue 03:02:29 PM 41.1703 -74.4067 218° Southwest 314 361 20,000 -446 Level New York Center
Tue 03:03:30 PM 41.0894 -74.4572 205° Southwest 314 361 19,100 -504 Descending New York Center
Tue 03:04:28 PM 41.0253 -74.3742 136° Southeast 256 295 19,000 -75 Descending New York Center
Tue 03:04:50 PM 41.0000 -74.3167 120° Southeast 342 394 19,000  Level New York TRACON
Tue 03:05:50 PM 40.9500 -74.2167 123° Southeast 342 394 19,000 -250 Level New York TRACON
Tue 03:06:50 PM 40.9000 -74.1000 120° Southeast 339 390 18,500 -950 Descending New York TRACON
Tue 03:07:50 PM 40.8500 -74.0000 123° Southeast 333 383 17,100 -1,600 Descending New York TRACON
Tue 03:08:50 PM 40.8000 -73.9000 123° Southeast 323 372 15,300 -1,686 Descending New York TRACON
Tue 03:09:51 PM 40.7667 -73.8000 114° Southeast 325 374 13,700 -1,140 Descending New York TRACON
Tue 03:10:51 PM 40.7333 -73.6833 111° Southeast 327 376 13,000 -450 Descending New York TRACON
Tue 03:11:51 PM 40.7000 -73.5833 114° Southeast 316 364 12,800 -650 Descending New York TRACON
Tue 03:12:51 PM 40.6333 -73.5333 150° Southeast 313 360 11,700 -1,400 Descending New York TRACON
Tue 03:13:51 PM 40.5500 -73.5167 171° South 303 349 10,000 -1,950 Descending New York TRACON
Tue 03:14:51 PM 40.4833 -73.5667 210° Southwest 296 341 7,800 -2,350 Descending New York TRACON
Tue 03:15:51 PM 40.4000 -73.6167 205° Southwest 291 335 5,300 -2,000 Descending New York TRACON
Tue 03:16:51 PM 40.3667 -73.7000 242° Southwest 282 325 3,800 -1,100 Descending New York TRACON
Tue 03:17:51 PM 40.3333 -73.7833 242° Southwest 230 265 3,100 -893 Descending New York TRACON
Tue 03:18:52 PM 40.3333 -73.8500 270° West 206 237 2,000 -545 Descending New York TRACON
Tue 03:19:52 PM 40.3667 -73.9000 311° West 174 200 2,000 -250 Level New York TRACON
Tue 03:20:52 PM 40.4167 -73.9000 360° North 165 190 1,500 -250 Descending New York TRACON
Tue 03:21:52 PM 40.4500 -73.9000 360° North 166 191 1,500  Level New York TRACON
Tue 03:22:52 PM 40.5000 -73.8667 27° Northeast 160 184 1,500  Level New York TRACON
Tue 03:23:52 PM 40.5333 -73.8500 21° North 161 185 1,500 -100 Level New York TRACON
Tue 03:24:52 PM 40.5667 -73.8167 37° Northeast 161 185 1,300 -450 Descending New York TRACON
Tue 03:25:52 PM 40.6000 -73.7833 37° Northeast 123 142 600 -700 Descending New York TRACON

Login

Don't have an account? Register now (free) for customized features, flight alerts, and more!